CheckWX is a tool to help pilots better visualize weather data.  It is not intended as a substitute for an official pre-flight weather briefing.

19:04:26 UTC

CYBN METAR
CFB Borden Heliport
Borden, Ontario, Canada
Current

59 mins ago

CYBN 191805Z AUTO 26006KT 240V310 9SM BKN026 M05/M11 A3059
Observed
Feb-19 @ 18:05 UTC
Wind
  • 260° at 6 KTS
Visibility
9 SM
Flight Rules
MVFR
Cloud Levels
  • Broken at 2,600' AGL
Temperature
-5°C / 23°F
Dewpoint
-11°C / 12°F
Humidity
63%
Altimeter
30.59" Hg
Pressure
1035.91 hPa
Previous

2 hours ago

CYBN 191721Z AUTO 28012KT 230V330 9SM OVC022 M06/M12 A3060
Observed
Feb-19 @ 17:21 UTC
Wind
  • 280° at 12 KTS
Visibility
9 SM
Flight Rules
MVFR
Cloud Levels
  • Overcast at 2,200' AGL
Temperature
-6°C / 21°F
Dewpoint
-12°C / 10°F
Humidity
63%
Altimeter
30.6" Hg
Pressure
1036.21 hPa
Previous

2 hours ago

CYBN 191700Z AUTO 31008KT 250V340 9SM OVC026 M06/M11 A3061 RMK SLP384
Observed
Feb-19 @ 17:00 UTC
Wind
  • 310° at 8 KTS
Visibility
9 SM
Flight Rules
MVFR
Cloud Levels
  • Overcast at 2,600' AGL
Temperature
-6°C / 21°F
Dewpoint
-11°C / 12°F
Humidity
68%
Altimeter
30.61" Hg
Pressure
1038.4 hPa